Time;durP1;ratioP1;P1;durP2;ratioP2;P2;SDS_P1;SDS_P2;PMS_P1;PMS_P2;Temp;Humidity;BMP_temperature;BMP_pressure;BME280_temperature;BME280_humidity;BME280_pressure;Samples;Min_cycle;Max_cycle;Signal;HPM_P1;HPM_P2
2021/05/20 00:01:07;;;;;;;1.17;0.60;;;12.50;75.40;;;;;;5001980;28;20496;-47
2021/05/20 00:03:36;;;;;;;2.80;0.77;;;12.50;75.50;;;;;;5003331;28;20456;-47
2021/05/20 00:06:05;;;;;;;0.70;0.60;;;12.50;75.50;;;;;;5003466;28;20460;-47
2021/05/20 00:08:33;;;;;;;1.57;0.87;;;12.50;75.60;;;;;;5004703;28;20476;-47
2021/05/20 00:11:01;;;;;;;1.03;0.80;;;12.40;75.80;;;;;;5005058;28;20468;-47
2021/05/20 00:13:29;;;;;;;0.80;0.60;;;12.40;75.80;;;;;;5005742;28;20464;-47
2021/05/20 00:15:57;;;;;;;1.47;0.50;;;12.40;76.00;;;;;;5006399;28;20456;-47
2021/05/20 00:18:25;;;;;;;0.87;0.70;;;12.40;76.20;;;;;;5004121;28;20462;-47
2021/05/20 00:20:53;;;;;;;0.90;0.80;;;12.40;76.30;;;;;;5002952;28;20476;-47
2021/05/20 00:23:21;;;;;;;1.40;0.70;;;12.30;76.30;;;;;;5005277;28;20452;-47
2021/05/20 00:25:49;;;;;;;0.90;0.80;;;12.30;76.40;;;;;;5005720;28;20463;-47
2021/05/20 00:28:17;;;;;;;1.47;1.20;;;12.30;76.50;;;;;;5000968;28;20464;-47
2021/05/20 00:30:45;;;;;;;5.47;1.20;;;12.30;76.80;;;;;;5006221;28;20788;-47
2021/05/20 00:33:13;;;;;;;4.30;1.97;;;12.30;76.80;;;;;;5004201;28;20468;-47
2021/05/20 00:35:41;;;;;;;2.00;1.10;;;12.30;76.90;;;;;;5001655;28;20456;-47
2021/05/20 00:38:12;;;;;;;1.40;1.30;;;12.30;77.00;;;;;;5003999;28;20460;-47
2021/05/20 00:40:40;;;;;;;4.40;1.60;;;12.30;77.00;;;;;;5001518;28;21081;-47
2021/05/20 00:43:09;;;;;;;1.90;1.40;;;12.20;77.00;;;;;;5004860;28;20473;-47
2021/05/20 00:45:37;;;;;;;2.20;1.50;;;12.20;77.10;;;;;;5010242;28;20483;-47
2021/05/20 00:48:06;;;;;;;2.07;1.60;;;12.20;77.10;;;;;;5007633;28;20918;-47
2021/05/20 00:50:34;;;;;;;1.53;1.40;;;12.20;77.20;;;;;;5008438;28;20452;-47
2021/05/20 00:53:02;;;;;;;2.40;1.47;;;12.20;77.30;;;;;;5007278;28;20471;-47
2021/05/20 00:55:34;;;;;;;1.43;1.33;;;12.20;77.20;;;;;;5006622;28;20464;-47
2021/05/20 00:58:04;;;;;;;1.60;1.50;;;12.20;77.30;;;;;;5005723;28;20464;-47
2021/05/20 01:00:33;;;;;;;1.50;1.40;;;12.20;77.30;;;;;;5006009;28;20577;-47
2021/05/20 01:03:01;;;;;;;1.60;1.50;;;12.20;77.40;;;;;;5009251;28;20457;-47
2021/05/20 01:05:30;;;;;;;2.03;1.20;;;12.20;77.60;;;;;;5004922;28;20937;-47
2021/05/20 01:07:58;;;;;;;1.57;1.43;;;12.30;77.60;;;;;;5006719;28;20461;-47
2021/05/20 01:10:26;;;;;;;1.40;1.30;;;12.30;77.50;;;;;;5007819;28;20452;-47
2021/05/20 01:12:54;;;;;;;5.13;1.73;;;12.30;77.50;;;;;;5004336;28;20469;-47
2021/05/20 01:15:27;;;;;;;2.20;2.00;;;12.30;77.50;;;;;;5002278;28;20464;-47
2021/05/20 01:17:57;;;;;;;2.83;1.40;;;12.30;77.50;;;;;;5009818;28;20464;-47
2021/05/20 01:20:26;;;;;;;4.43;1.70;;;12.30;77.50;;;;;;4990843;28;20499;-47
2021/05/20 01:23:05;;;;;;;2.40;1.23;;;12.30;77.50;;;;;;5009354;28;20468;-47
2021/05/20 01:25:37;;;;;;;2.90;1.20;;;12.30;77.60;;;;;;5006283;28;20511;-47
2021/05/20 01:28:11;;;;;;;1.93;1.40;;;12.30;77.30;;;;;;5007130;28;20456;-47
2021/05/20 01:30:40;;;;;;;3.83;1.50;;;12.40;77.40;;;;;;5008682;28;20464;-47
2021/05/20 01:33:08;;;;;;;2.50;1.37;;;12.40;77.30;;;;;;5005724;28;20461;-47
2021/05/20 01:35:36;;;;;;;1.50;1.40;;;12.40;77.40;;;;;;5005507;28;20456;-47
2021/05/20 01:38:41;;;;;;;1.40;1.30;;;12.40;76.80;;;;;;5007834;28;20473;-47
2021/05/20 01:41:05;;;;;;;1.40;1.30;;;12.30;77.00;;;;;;5005418;28;21008;-47
2021/05/20 01:43:34;;;;;;;4.37;1.83;;;12.30;77.20;;;;;;4990449;28;20460;-47
2021/05/20 01:46:04;;;;;;;2.40;1.10;;;12.30;77.20;;;;;;5006889;28;20507;-47
2021/05/20 01:48:39;;;;;;;1.80;1.17;;;12.30;77.30;;;;;;5007010;28;20817;-47
2021/05/20 01:51:16;;;;;;;2.83;1.30;;;12.30;77.40;;;;;;5004629;28;20944;-47
2021/05/20 01:53:45;;;;;;;1.47;1.37;;;12.30;77.50;;;;;;5006439;28;20457;-47
2021/05/20 01:56:15;;;;;;;2.67;1.53;;;12.30;77.60;;;;;;5004256;28;20453;-47
2021/05/20 01:58:44;;;;;;;2.40;1.37;;;12.30;77.60;;;;;;5007652;28;20464;-47
2021/05/20 02:01:13;;;;;;;1.53;1.23;;;12.30;77.70;;;;;;5003574;28;20516;-47
2021/05/20 02:03:41;;;;;;;1.93;1.57;;;12.30;77.70;;;;;;5006649;28;20845;-47
2021/05/20 02:06:09;;;;;;;1.60;1.50;;;12.30;77.80;;;;;;5004735;28;20792;-47
2021/05/20 02:08:39;;;;;;;1.83;1.70;;;12.20;77.90;;;;;;5009073;28;20512;-49
2021/05/20 02:11:08;;;;;;;1.83;1.40;;;12.30;77.90;;;;;;5004113;28;20969;-49
2021/05/20 02:13:36;;;;;;;2.47;1.77;;;12.30;78.00;;;;;;5008341;28;20462;-49
2021/05/20 02:16:05;;;;;;;3.67;1.33;;;12.20;78.10;;;;;;5006741;28;20468;-49
2021/05/20 02:18:34;;;;;;;3.43;1.60;;;12.20;78.10;;;;;;5005215;28;21044;-49
2021/05/20 02:21:03;;;;;;;1.20;1.10;;;12.20;78.20;;;;;;5003970;28;20481;-49
2021/05/20 02:23:31;;;;;;;2.30;1.43;;;12.20;78.30;;;;;;5007578;28;20976;-49
2021/05/20 02:26:00;;;;;;;3.37;1.63;;;12.20;78.30;;;;;;5005415;28;20821;-49
2021/05/20 02:28:28;;;;;;;2.83;1.80;;;12.20;78.30;;;;;;5006995;28;20951;-49
2021/05/20 02:30:55;;;;;;;1.50;1.40;;;12.20;78.30;;;;;;5005002;28;20472;-51
2021/05/20 02:33:24;;;;;;;1.47;1.37;;;12.20;78.30;;;;;;5004988;28;20468;-51
2021/05/20 02:35:51;;;;;;;1.53;1.33;;;12.20;78.40;;;;;;5007966;28;20479;-51
2021/05/20 02:38:19;;;;;;;2.60;1.90;;;12.20;78.30;;;;;;5004290;28;20996;-51
2021/05/20 02:40:47;;;;;;;1.90;1.53;;;12.20;78.40;;;;;;5004413;28;20506;-50
2021/05/20 02:43:15;;;;;;;2.93;1.57;;;12.20;78.40;;;;;;5003882;28;20825;-51
2021/05/20 02:45:43;;;;;;;1.93;1.40;;;12.20;78.50;;;;;;5004762;28;20503;-51
2021/05/20 02:48:15;;;;;;;1.60;1.50;;;12.20;78.50;;;;;;5007838;28;20463;-51
2021/05/20 02:50:44;;;;;;;2.27;1.23;;;12.20;78.50;;;;;;5004620;28;20484;-51
2021/05/20 02:53:12;;;;;;;1.43;1.23;;;12.10;78.60;;;;;;5006459;28;20460;-50
2021/05/20 02:55:40;;;;;;;2.67;1.70;;;12.10;78.60;;;;;;5005772;28;20468;-51
2021/05/20 02:58:08;;;;;;;2.30;1.43;;;12.20;78.70;;;;;;5006076;28;20814;-51
2021/05/20 03:00:36;;;;;;;2.67;2.10;;;12.20;78.70;;;;;;5006965;28;20499;-51
2021/05/20 03:03:05;;;;;;;1.33;1.23;;;12.10;78.80;;;;;;5004750;28;20463;-51
2021/05/20 03:05:32;;;;;;;2.93;1.20;;;12.10;78.80;;;;;;5001430;28;20487;-51
2021/05/20 03:08:00;;;;;;;2.40;1.50;;;12.10;78.80;;;;;;5004226;28;20477;-50
2021/05/20 03:10:28;;;;;;;1.97;1.77;;;12.10;78.90;;;;;;5004898;28;20479;-51
2021/05/20 03:12:57;;;;;;;1.30;1.20;;;12.10;78.80;;;;;;5005478;28;20468;-51
2021/05/20 03:15:25;;;;;;;1.93;1.83;;;12.10;78.90;;;;;;5005924;28;20460;-51
2021/05/20 03:17:53;;;;;;;2.40;1.47;;;12.10;79.10;;;;;;5005641;28;20475;-51
2021/05/20 03:20:21;;;;;;;2.10;1.57;;;12.10;79.20;;;;;;5003920;28;20461;-51
2021/05/20 03:22:49;;;;;;;1.67;1.50;;;12.10;79.20;;;;;;5002230;28;20490;-51
2021/05/20 03:25:18;;;;;;;1.37;1.27;;;12.10;79.20;;;;;;5003119;28;20471;-51
2021/05/20 03:27:46;;;;;;;1.53;1.27;;;12.10;79.20;;;;;;5005846;28;20460;-51
2021/05/20 03:30:15;;;;;;;1.47;1.37;;;12.10;79.20;;;;;;5008359;28;20465;-51
2021/05/20 03:32:42;;;;;;;1.27;1.17;;;12.20;79.20;;;;;;5004037;28;20472;-51
2021/05/20 03:35:11;;;;;;;2.00;1.90;;;12.20;79.10;;;;;;5003399;28;20460;-51
2021/05/20 03:37:39;;;;;;;2.00;1.70;;;12.20;78.90;;;;;;4987426;28;20460;-51
2021/05/20 03:40:07;;;;;;;4.50;1.40;;;12.10;78.90;;;;;;5003474;28;20914;-50
2021/05/20 03:42:36;;;;;;;2.40;1.60;;;12.10;78.90;;;;;;5003331;28;20977;-50
2021/05/20 03:45:05;;;;;;;1.53;1.43;;;12.10;78.90;;;;;;5002099;28;20483;-50
2021/05/20 03:47:33;;;;;;;1.80;1.70;;;12.10;78.90;;;;;;5006228;28;20968;-51
2021/05/20 03:50:02;;;;;;;2.50;2.20;;;12.10;79.10;;;;;;5003853;28;20491;-51
2021/05/20 03:52:30;;;;;;;2.37;1.93;;;12.10;79.10;;;;;;5005383;28;20460;-50
2021/05/20 03:54:58;;;;;;;2.13;1.43;;;12.10;79.20;;;;;;5004942;28;20472;-51
2021/05/20 03:57:26;;;;;;;2.30;1.80;;;12.10;79.30;;;;;;5005721;28;20484;-51
2021/05/20 03:59:54;;;;;;;1.63;1.40;;;12.10;79.30;;;;;;5002903;28;20472;-50
2021/05/20 04:02:23;;;;;;;3.87;1.40;;;12.10;79.30;;;;;;5003539;28;20480;-50
2021/05/20 04:04:50;;;;;;;1.20;1.10;;;12.10;79.40;;;;;;5002683;28;20464;-51
2021/05/20 04:07:19;;;;;;;4.30;1.60;;;12.10;79.50;;;;;;5004232;28;20462;-51
2021/05/20 04:09:47;;;;;;;2.30;1.57;;;12.10;79.50;;;;;;5002823;28;20488;-50
2021/05/20 04:12:15;;;;;;;2.93;1.90;;;12.10;79.50;;;;;;5003901;28;20472;-51
2021/05/20 04:14:44;;;;;;;3.07;2.30;;;12.10;79.40;;;;;;5005196;28;20467;-50
2021/05/20 04:17:12;;;;;;;1.80;1.70;;;12.20;79.40;;;;;;5007065;28;20472;-50
2021/05/20 04:19:40;;;;;;;4.43;1.83;;;12.20;79.40;;;;;;5006356;28;20460;-50
2021/05/20 04:22:07;;;;;;;1.73;1.60;;;12.20;79.30;;;;;;5006532;28;20488;-51
2021/05/20 04:24:35;;;;;;;1.93;1.47;;;12.20;79.20;;;;;;5008254;28;20463;-51
2021/05/20 04:27:05;;;;;;;3.00;1.03;;;12.30;79.20;;;;;;5006275;28;20842;-50
2021/05/20 04:29:33;;;;;;;2.90;1.80;;;12.30;79.20;;;;;;5006856;28;20491;-51
2021/05/20 04:32:01;;;;;;;1.00;1.00;;;12.30;79.20;;;;;;5009384;28;20456;-51
2021/05/20 04:34:29;;;;;;;1.63;1.53;;;12.30;79.10;;;;;;5008279;28;20441;-51
2021/05/20 04:36:57;;;;;;;2.10;1.70;;;12.30;79.10;;;;;;5008257;28;20479;-50
2021/05/20 04:39:25;;;;;;;1.77;1.30;;;12.30;79.10;;;;;;5008827;28;20460;-51
2021/05/20 04:41:53;;;;;;;1.70;1.50;;;12.30;79.10;;;;;;5008034;28;20488;-51
2021/05/20 04:44:21;;;;;;;1.57;1.47;;;12.40;79.10;;;;;;5009195;28;20823;-50
2021/05/20 04:46:49;;;;;;;1.30;1.20;;;12.30;79.00;;;;;;4992720;28;20453;-50
2021/05/20 04:49:18;;;;;;;2.90;2.10;;;12.40;79.10;;;;;;5007723;28;21006;-50
2021/05/20 04:51:48;;;;;;;1.40;1.30;;;12.40;79.00;;;;;;5008396;28;20460;-50
2021/05/20 04:54:16;;;;;;;3.13;2.00;;;12.40;79.00;;;;;;5006322;28;20465;-50
2021/05/20 04:56:44;;;;;;;1.70;1.60;;;12.40;79.10;;;;;;5010803;28;20455;-51
2021/05/20 04:59:12;;;;;;;2.17;2.03;;;12.40;79.10;;;;;;5006288;28;20464;-50
2021/05/20 05:01:40;;;;;;;1.83;1.73;;;12.40;79.20;;;;;;5005052;28;20841;-50
2021/05/20 05:04:08;;;;;;;2.23;2.03;;;12.30;79.30;;;;;;5010483;28;20445;-51
2021/05/20 05:06:36;;;;;;;3.00;2.70;;;12.40;79.30;;;;;;5006966;28;20463;-51
2021/05/20 05:09:04;;;;;;;3.73;3.03;;;12.50;78.80;;;;;;5006995;28;20992;-51
2021/05/20 05:11:32;;;;;;;3.00;2.40;;;12.50;78.60;;;;;;5001443;28;20981;-51
2021/05/20 05:14:01;;;;;;;5.90;3.40;;;12.50;78.70;;;;;;5004289;28;21026;-51
2021/05/20 05:16:31;;;;;;;2.93;2.60;;;12.50;78.70;;;;;;5005830;28;21034;-50
2021/05/20 05:18:59;;;;;;;6.97;4.33;;;12.50;78.20;;;;;;5006147;28;20468;-51
2021/05/20 05:21:28;;;;;;;4.80;4.30;;;12.50;77.30;;;;;;5005934;28;20498;-51
2021/05/20 05:23:56;;;;;;;6.80;4.83;;;12.60;76.50;;;;;;5006373;28;21092;-51
2021/05/20 05:26:24;;;;;;;6.40;4.17;;;12.50;76.60;;;;;;5007590;28;20453;-51
2021/05/20 05:28:53;;;;;;;7.40;4.60;;;12.60;76.50;;;;;;5004977;28;20445;-50
2021/05/20 05:31:24;;;;;;;5.83;5.20;;;12.60;76.10;;;;;;5007735;28;21319;-51
2021/05/20 05:33:52;;;;;;;7.27;4.60;;;12.60;76.20;;;;;;5006478;28;20473;-51
2021/05/20 05:36:24;;;;;;;5.00;4.60;;;12.50;75.80;;;;;;5005621;28;20455;-51
2021/05/20 05:38:52;;;;;;;5.00;4.50;;;12.50;76.10;;;;;;5003984;28;20472;-51
2021/05/20 05:41:20;;;;;;;6.00;4.80;;;12.50;76.00;;;;;;5004881;28;20488;-51
2021/05/20 05:43:48;;;;;;;5.17;4.67;;;12.50;76.10;;;;;;5008242;28;20463;-51
2021/05/20 05:46:16;;;;;;;7.23;5.13;;;12.50;76.10;;;;;;5006947;28;20440;-51
2021/05/20 05:48:47;;;;;;;6.63;5.57;;;12.50;75.70;;;;;;5007543;28;20475;-50
2021/05/20 05:51:18;;;;;;;6.90;5.93;;;12.60;76.10;;;;;;5003989;28;20464;-50
2021/05/20 05:53:48;;;;;;;5.40;4.90;;;12.60;76.10;;;;;;5006016;28;20449;-51
2021/05/20 05:56:16;;;;;;;6.30;5.30;;;12.60;76.20;;;;;;5007419;28;20456;-51
2021/05/20 05:58:44;;;;;;;6.20;5.10;;;12.60;76.10;;;;;;5004404;28;20464;-51
2021/05/20 06:01:12;;;;;;;5.63;5.13;;;12.60;76.10;;;;;;5004933;28;20921;-51
2021/05/20 06:03:40;;;;;;;7.23;5.90;;;12.60;76.00;;;;;;5005890;28;20464;-51
2021/05/20 06:06:09;;;;;;;6.23;5.33;;;12.70;75.90;;;;;;5003058;28;20460;-51
2021/05/20 06:08:37;;;;;;;8.00;5.57;;;12.70;75.90;;;;;;5003759;28;20480;-51
2021/05/20 06:11:05;;;;;;;5.60;5.10;;;12.80;75.60;;;;;;5004801;28;20479;-51
2021/05/20 06:13:33;;;;;;;7.20;5.60;;;12.80;75.60;;;;;;5006143;28;20529;-51
2021/05/20 06:16:01;;;;;;;13.40;6.03;;;12.80;75.70;;;;;;5008293;28;20456;-51
2021/05/20 06:18:30;;;;;;;6.67;6.07;;;12.90;75.60;;;;;;5006636;28;20457;-50
2021/05/20 06:20:58;;;;;;;7.33;6.57;;;12.90;75.50;;;;;;5007127;28;20464;-50
2021/05/20 06:23:26;;;;;;;7.70;6.73;;;13.00;75.30;;;;;;5003723;28;20495;-50
2021/05/20 06:25:54;;;;;;;8.10;7.17;;;13.00;75.10;;;;;;5005102;28;20504;-51
2021/05/20 06:28:23;;;;;;;7.33;6.63;;;13.10;74.00;;;;;;5004093;28;20448;-51
2021/05/20 06:30:53;;;;;;;7.53;6.83;;;13.20;72.60;;;;;;5003029;28;20822;-50
2021/05/20 06:33:21;;;;;;;7.83;7.07;;;13.30;72.50;;;;;;5006732;28;20467;-50
2021/05/20 06:35:49;;;;;;;7.30;6.60;;;13.30;72.20;;;;;;5005438;28;20483;-50
2021/05/20 06:38:17;;;;;;;8.30;7.50;;;13.20;72.50;;;;;;5008057;28;20459;-50
2021/05/20 06:40:45;;;;;;;8.17;7.30;;;13.20;72.20;;;;;;5009350;28;20448;-50
2021/05/20 06:43:13;;;;;;;7.27;6.40;;;13.20;71.90;;;;;;5005606;28;20507;-50
2021/05/20 06:45:41;;;;;;;9.07;8.17;;;13.30;72.50;;;;;;5008614;28;20802;-50
2021/05/20 06:48:13;;;;;;;9.90;7.00;;;13.40;72.10;;;;;;5005532;28;20475;-50
2021/05/20 06:50:41;;;;;;;7.13;6.53;;;13.40;71.50;;;;;;4991562;28;20453;-50
2021/05/20 06:53:10;;;;;;;9.23;7.60;;;13.40;71.30;;;;;;5005392;28;20475;-50
2021/05/20 06:55:38;;;;;;;9.03;7.73;;;13.50;71.00;;;;;;5006854;28;20475;-50
2021/05/20 07:00:38;;;;;;;9.33;7.73;;;13.50;71.20;;;;;;5006312;28;20475;-50
2021/05/20 07:03:10;;;;;;;10.53;8.80;;;13.60;71.30;;;;;;4988939;28;20923;-51
2021/05/20 07:05:38;;;;;;;10.10;8.87;;;13.60;71.00;;;;;;4999910;28;20855;-51
2021/05/20 07:08:06;;;;;;;8.93;8.03;;;13.60;71.20;;;;;;5005268;28;20448;-50
2021/05/20 07:10:34;;;;;;;8.77;7.63;;;13.70;70.80;;;;;;5007799;28;20463;-50
2021/05/20 07:13:04;;;;;;;9.47;8.07;;;13.80;70.20;;;;;;5007441;28;20462;-50
2021/05/20 07:15:32;;;;;;;8.97;8.07;;;13.80;70.40;;;;;;5005475;28;20465;-50
2021/05/20 07:18:00;;;;;;;11.53;8.50;;;13.80;70.60;;;;;;5000820;28;20540;-50
2021/05/20 07:20:28;;;;;;;10.73;8.90;;;13.90;70.40;;;;;;5002909;28;20464;-50
2021/05/20 07:22:57;;;;;;;8.67;7.47;;;13.90;70.30;;;;;;5004804;28;20574;-50
2021/05/20 07:25:25;;;;;;;9.03;7.93;;;14.00;69.50;;;;;;5007385;28;20782;-50
2021/05/20 07:27:53;;;;;;;9.93;8.20;;;14.10;69.30;;;;;;5004297;28;20552;-51
2021/05/20 07:30:22;;;;;;;9.57;8.20;;;14.30;69.20;;;;;;5005877;28;20463;-51
2021/05/20 07:32:50;;;;;;;9.43;8.33;;;14.30;68.30;;;;;;4988485;28;20872;-51
2021/05/20 07:35:18;;;;;;;11.13;8.33;;;14.40;68.00;;;;;;5003823;28;20474;-51
2021/05/20 07:37:46;;;;;;;8.57;7.77;;;14.40;68.30;;;;;;5004971;28;20457;-51
2021/05/20 07:40:15;;;;;;;9.40;8.40;;;14.40;68.40;;;;;;5008228;28;20449;-50
2021/05/20 07:42:43;;;;;;;9.60;8.40;;;14.40;68.70;;;;;;5004337;28;20500;-51
2021/05/20 07:45:12;;;;;;;9.90;8.73;;;14.40;68.50;;;;;;5003943;28;20567;-50
2021/05/20 07:47:41;;;;;;;11.07;9.87;;;14.40;68.10;;;;;;5006033;28;20440;-50
2021/05/20 07:50:11;;;;;;;10.53;8.97;;;14.40;67.80;;;;;;5005107;28;20991;-51
2021/05/20 07:52:39;;;;;;;8.83;7.93;;;14.40;67.90;;;;;;5006336;28;20528;-51
2021/05/20 07:55:08;;;;;;;10.27;8.20;;;14.50;67.30;;;;;;5009717;28;20564;-51
2021/05/20 07:57:36;;;;;;;12.40;9.00;;;14.60;67.70;;;;;;5010658;28;20457;-51
2021/05/20 08:00:06;;;;;;;10.43;9.03;;;14.60;67.90;;;;;;5008976;28;20468;-51
2021/05/20 08:03:22;;;;;;;11.10;8.43;;;14.60;68.10;;;;;;5008909;28;20476;-51
2021/05/20 08:05:38;;;;;;;10.17;9.10;;;14.60;67.60;;;;;;5002920;28;20457;-51
2021/05/20 08:13:24;;;;;;;12.17;7.90;;;14.60;68.10;;;;;;5009568;28;20470;-51
2021/05/20 08:15:52;;;;;;;10.17;9.13;;;14.60;68.20;;;;;;5009299;28;20506;-51
2021/05/20 08:18:20;;;;;;;8.67;7.70;;;14.70;67.10;;;;;;5006147;28;20480;-51
2021/05/20 08:20:48;;;;;;;9.57;8.07;;;14.70;66.90;;;;;;5011557;28;20965;-51
2021/05/20 08:23:16;;;;;;;10.20;8.80;;;14.70;66.40;;;;;;5012143;28;20502;-50
2021/05/20 08:25:44;;;;;;;9.57;8.60;;;14.70;66.80;;;;;;5007485;28;20483;-51
2021/05/20 08:28:13;;;;;;;11.17;9.30;;;14.70;67.20;;;;;;5007766;28;20467;-51
2021/05/20 08:30:41;;;;;;;9.77;8.77;;;14.80;67.90;;;;;;5006446;28;20995;-51
2021/05/20 08:33:09;;;;;;;11.00;8.30;;;14.80;67.50;;;;;;5009183;28;20864;-51
2021/05/20 08:35:38;;;;;;;10.80;9.40;;;14.80;67.40;;;;;;5006162;28;20448;-51
2021/05/20 08:38:06;;;;;;;8.97;8.03;;;14.80;67.20;;;;;;5007436;28;20543;-51
2021/05/20 08:40:34;;;;;;;11.80;8.90;;;14.80;67.10;;;;;;5004679;28;20464;-51
2021/05/20 08:43:02;;;;;;;9.47;7.90;;;14.80;67.30;;;;;;5009106;28;20856;-51
2021/05/20 08:45:33;;;;;;;9.07;8.17;;;14.80;67.60;;;;;;5008994;28;20449;-50
2021/05/20 08:48:02;;;;;;;11.47;8.53;;;14.90;67.40;;;;;;5008847;28;20526;-50
2021/05/20 08:50:32;;;;;;;11.77;9.40;;;14.90;67.70;;;;;;5009999;28;20452;-50
2021/05/20 08:53:00;;;;;;;9.03;8.07;;;15.00;67.50;;;;;;5008191;28;20473;-51
2021/05/20 08:55:32;;;;;;;10.80;9.43;;;15.00;67.60;;;;;;5010562;28;20471;-51
2021/05/20 08:58:02;;;;;;;10.47;8.13;;;15.10;67.40;;;;;;5007545;28;20483;-50
2021/05/20 09:00:30;;;;;;;8.80;7.90;;;15.30;66.80;;;;;;5005244;28;20475;-51
2021/05/20 09:03:10;;;;;;;10.83;8.23;;;15.50;65.70;;;;;;5008147;28;20484;-51
2021/05/20 09:05:40;;;;;;;8.53;7.63;;;15.70;65.10;;;;;;5005764;28;20448;-51
2021/05/20 09:08:14;;;;;;;8.50;7.70;;;16.00;65.00;;;;;;5006794;28;20959;-51
2021/05/20 09:10:43;;;;;;;8.57;7.27;;;16.20;63.80;;;;;;5007691;28;21124;-51
2021/05/20 09:13:16;;;;;;;7.90;6.73;;;16.60;63.00;;;;;;5008177;28;20453;-51
2021/05/20 09:15:48;;;;;;;7.83;7.03;;;17.00;61.40;;;;;;5008643;28;20449;-51
2021/05/20 09:18:27;;;;;;;9.87;6.80;;;17.30;58.60;;;;;;5007186;28;20453;-50
2021/05/20 09:20:58;;;;;;;8.37;7.23;;;17.50;58.80;;;;;;5010119;28;20456;-51
2021/05/20 09:23:29;;;;;;;7.90;7.10;;;17.50;58.90;;;;;;5006919;28;20496;-51
2021/05/20 09:26:12;;;;;;;9.93;8.47;;;17.40;58.60;;;;;;5008806;28;20456;-51
2021/05/20 09:28:43;;;;;;;8.60;7.77;;;17.20;59.30;;;;;;4989792;28;20452;-50
2021/05/20 09:31:16;;;;;;;8.57;7.67;;;17.00;59.80;;;;;;5006863;28;20480;-50
2021/05/20 09:33:54;;;;;;;7.97;7.10;;;16.90;60.10;;;;;;5003695;28;20480;-50
2021/05/20 09:36:24;;;;;;;8.97;7.50;;;16.80;60.70;;;;;;5002834;28;20464;-50
2021/05/20 09:39:12;;;;;;;8.00;7.20;;;16.70;61.40;;;;;;5004097;28;20457;-50
2021/05/20 09:41:41;;;;;;;9.13;7.73;;;16.60;62.20;;;;;;4977708;28;20456;-51
2021/05/20 09:44:28;;;;;;;9.63;8.10;;;16.60;61.90;;;;;;5006597;28;20495;-50
2021/05/20 09:46:57;;;;;;;8.30;7.37;;;16.50;61.90;;;;;;5003431;28;20460;-50
2021/05/20 09:49:26;;;;;;;9.83;8.03;;;16.50;62.00;;;;;;5007812;28;20448;-50
2021/05/20 09:52:20;;;;;;;7.97;6.93;;;16.50;61.90;;;;;;5007593;28;21067;-51
2021/05/20 09:54:50;;;;;;;8.20;6.60;;;16.50;62.10;;;;;;5010141;28;21028;-50
2021/05/20 09:57:33;;;;;;;8.50;7.20;;;16.70;61.80;;;;;;5008129;28;20467;-50
2021/05/20 10:00:25;;;;;;;6.80;6.10;;;17.00;61.60;;;;;;5005310;28;21023;-51
2021/05/20 10:03:11;;;;;;;6.50;5.90;;;17.30;60.10;;;;;;4996520;28;20489;-50
2021/05/20 10:05:39;;;;;;;5.63;5.13;;;17.60;59.30;;;;;;5008152;28;20721;-51
2021/05/20 10:08:11;;;;;;;6.97;5.33;;;17.80;57.80;;;;;;5003792;28;21011;-51
2021/05/20 10:10:45;;;;;;;5.77;5.10;;;17.80;57.90;;;;;;5007944;28;20449;-51
2021/05/20 10:13:15;;;;;;;6.20;5.60;;;17.90;57.50;;;;;;5008334;28;20499;-51
2021/05/20 10:15:43;;;;;;;6.40;5.80;;;17.90;57.50;;;;;;5006952;28;20817;-51
2021/05/20 10:18:17;;;;;;;5.57;5.00;;;17.80;57.90;;;;;;5002635;28;20441;-51
2021/05/20 10:20:47;;;;;;;5.60;5.10;;;17.70;58.30;;;;;;4989435;28;20449;-51
2021/05/20 10:23:25;;;;;;;5.90;5.30;;;17.60;58.20;;;;;;5005313;28;20549;-51
2021/05/20 10:25:57;;;;;;;5.83;5.30;;;17.50;58.10;;;;;;5004796;28;20507;-51
2021/05/20 10:28:26;;;;;;;5.80;5.07;;;17.40;58.60;;;;;;5008479;28;20941;-51
2021/05/20 10:30:57;;;;;;;5.87;5.37;;;17.30;59.00;;;;;;5006143;28;20859;-51
2021/05/20 10:33:28;;;;;;;7.00;5.90;;;17.20;59.70;;;;;;4991039;28;20471;-51
2021/05/20 10:35:58;;;;;;;10.73;6.30;;;17.10;60.30;;;;;;5004118;28;20468;-51
2021/05/20 10:38:30;;;;;;;8.20;5.10;;;17.10;60.10;;;;;;5008405;28;20468;-51
2021/05/20 10:41:10;;;;;;;4.73;4.33;;;17.10;59.50;;;;;;5008728;28;20506;-51
2021/05/20 10:43:42;;;;;;;9.17;5.73;;;17.10;59.60;;;;;;5005955;28;20507;-51
2021/05/20 10:46:13;;;;;;;6.43;5.03;;;17.10;60.60;;;;;;5008080;28;20892;-51
2021/05/20 10:48:52;;;;;;;8.30;4.90;;;17.00;60.40;;;;;;5009111;28;20440;-51
2021/05/20 10:51:25;;;;;;;4.50;4.07;;;16.90;60.30;;;;;;5002938;28;20451;-51
2021/05/20 10:54:09;;;;;;;9.53;4.33;;;16.80;60.20;;;;;;5006776;28;20461;-51
2021/05/20 10:56:40;;;;;;;5.47;4.97;;;16.70;60.90;;;;;;5007128;28;20545;-51
2021/05/20 10:59:36;;;;;;;5.53;3.73;;;16.70;60.90;;;;;;5008843;28;20460;-51
2021/05/20 11:02:04;;;;;;;5.10;3.90;;;16.70;60.70;;;;;;5007268;28;20459;-51
2021/05/20 11:04:42;;;;;;;5.43;4.80;;;16.80;60.90;;;;;;5005801;28;20504;-51
2021/05/20 11:07:10;;;;;;;5.17;4.53;;;17.00;60.50;;;;;;5006954;28;20485;-51
2021/05/20 11:09:48;;;;;;;4.90;4.40;;;17.10;60.10;;;;;;5006620;28;20471;-51
2021/05/20 11:12:20;;;;;;;3.57;3.27;;;17.20;59.60;;;;;;5009587;28;20451;-51
2021/05/20 11:14:50;;;;;;;4.07;3.50;;;17.30;59.20;;;;;;5006859;28;20452;-51
2021/05/20 11:17:35;;;;;;;7.87;3.77;;;17.40;59.00;;;;;;5007566;28;20471;-50
2021/05/20 11:20:36;;;;;;;3.57;3.27;;;17.50;58.80;;;;;;5004243;28;20465;-51
2021/05/20 11:23:21;;;;;;;4.57;4.17;;;17.60;59.30;;;;;;4999009;28;20489;-51
2021/05/20 11:26:04;;;;;;;4.20;3.53;;;17.70;57.40;;;;;;5005844;28;20472;-51
2021/05/20 11:28:46;;;;;;;2.87;2.67;;;17.80;58.10;;;;;;5008238;28;20991;-51
2021/05/20 11:31:19;;;;;;;4.43;3.03;;;17.80;58.20;;;;;;5003722;28;20809;-51
2021/05/20 11:33:59;;;;;;;4.37;3.27;;;17.90;57.50;;;;;;5005654;28;20457;-51
2021/05/20 11:36:43;;;;;;;5.60;3.43;;;17.90;57.40;;;;;;5003794;28;20456;-51
2021/05/20 11:39:15;;;;;;;4.50;3.80;;;17.90;58.20;;;;;;5003478;28;20464;-51
2021/05/20 11:41:44;;;;;;;4.40;3.47;;;17.80;58.80;;;;;;5008160;28;20448;-51
2021/05/20 11:44:17;;;;;;;7.47;4.33;;;17.70;59.30;;;;;;5005915;28;20499;-50
2021/05/20 11:46:47;;;;;;;6.30;3.10;;;17.50;59.80;;;;;;5003448;28;20920;-50
2021/05/20 11:49:21;;;;;;;3.20;2.60;;;17.50;60.30;;;;;;4986589;28;20463;-50
2021/05/20 11:51:52;;;;;;;2.60;2.40;;;17.40;60.50;;;;;;5005164;28;20445;-50
2021/05/20 11:54:23;;;;;;;3.20;2.57;;;17.30;60.30;;;;;;5004681;28;20452;-50
2021/05/20 11:56:56;;;;;;;2.13;2.00;;;17.30;59.80;;;;;;5005588;28;20456;-50
2021/05/20 11:59:35;;;;;;;5.40;1.60;;;17.30;59.30;;;;;;5005575;28;20897;-50
2021/05/20 12:02:05;;;;;;;1.87;1.77;;;17.30;59.20;;;;;;5004254;28;20480;-50
2021/05/20 12:04:34;;;;;;;2.57;1.90;;;17.30;58.80;;;;;;5006079;28;20484;-50
2021/05/20 12:07:02;;;;;;;1.87;1.43;;;17.30;58.90;;;;;;5004385;28;20504;-50
2021/05/20 12:09:30;;;;;;;2.13;1.93;;;17.30;59.00;;;;;;5004664;28;20472;-50
2021/05/20 12:12:12;;;;;;;2.37;1.80;;;17.30;58.50;;;;;;5005345;28;20457;-50
2021/05/20 12:14:40;;;;;;;1.80;1.70;;;17.30;59.20;;;;;;5005153;28;20472;-50
2021/05/20 12:17:24;;;;;;;1.40;1.30;;;17.30;59.70;;;;;;5006978;28;20459;-50
2021/05/20 12:19:55;;;;;;;3.07;1.43;;;17.30;60.50;;;;;;4998708;28;20464;-50
2021/05/20 12:22:23;;;;;;;2.70;1.77;;;17.40;60.30;;;;;;5004212;28;20471;-50
2021/05/20 12:24:58;;;;;;;2.00;1.80;;;17.50;60.00;;;;;;5005746;28;20572;-50
2021/05/20 12:27:30;;;;;;;2.30;1.83;;;17.60;59.70;;;;;;5005791;28;20452;-50
2021/05/20 12:30:00;;;;;;;1.50;1.40;;;17.60;58.60;;;;;;5004665;28;20857;-51
2021/05/20 12:32:35;;;;;;;1.90;1.70;;;17.70;58.90;;;;;;5006507;28;20456;-50
2021/05/20 12:35:29;;;;;;;1.30;1.20;;;17.70;58.50;;;;;;5008080;28;20456;-50
2021/05/20 12:38:20;;;;;;;2.10;1.90;;;17.70;57.80;;;;;;4998529;28;20484;-50
2021/05/20 12:41:00;;;;;;;1.73;1.63;;;17.80;57.90;;;;;;5006588;28;20875;-50
2021/05/20 12:43:32;;;;;;;1.60;1.40;;;17.90;56.30;;;;;;5011867;28;20484;-50
2021/05/20 12:46:08;;;;;;;1.93;1.30;;;17.90;56.10;;;;;;5008808;28;20467;-50
2021/05/20 12:48:41;;;;;;;2.03;1.30;;;18.00;54.60;;;;;;5006461;28;20456;-50
2021/05/20 12:51:15;;;;;;;1.40;1.30;;;18.10;54.70;;;;;;5008664;28;20448;-50
2021/05/20 12:53:51;;;;;;;3.53;2.40;;;18.10;54.70;;;;;;5008782;28;20942;-50
2021/05/20 12:56:25;;;;;;;5.43;2.07;;;18.20;54.80;;;;;;5006722;28;20817;-50
2021/05/20 12:59:08;;;;;;;3.23;2.60;;;18.30;53.60;;;;;;5009588;28;20956;-50
2021/05/20 13:01:49;;;;;;;2.27;1.77;;;18.30;54.10;;;;;;5008674;28;20464;-50
2021/05/20 13:04:27;;;;;;;1.40;1.30;;;18.30;53.30;;;;;;5008996;28;20495;-51
2021/05/20 13:07:04;;;;;;;1.50;1.40;;;18.20;54.10;;;;;;5010472;28;20480;-50
2021/05/20 13:09:40;;;;;;;2.90;1.90;;;18.20;53.80;;;;;;5007188;28;20472;-50
2021/05/20 13:12:14;;;;;;;2.47;1.80;;;18.30;53.70;;;;;;5010217;28;20467;-50